Time;durP1;ratioP1;P1;durP2;ratioP2;P2;SDS_P1;SDS_P2;PMS_P1;PMS_P2;Temp;Humidity;BMP_temperature;BMP_pressure;BME280_temperature;BME280_humidity;BME280_pressure;Samples;Min_cycle;Max_cycle;Signal;HPM_P1;HPM_P2
2022/12/12 00:02:10;;;;;;;60.05;25.35;;;;;;;-0.81;73.98;99962.19;10365641;28;20053;-79
2022/12/12 00:07:14;;;;;;;70.63;26.10;;;;;;;-0.82;73.38;99965.75;10358641;28;20077;-79
2022/12/12 00:12:18;;;;;;;73.57;27.67;;;;;;;-0.80;73.63;99975.31;10372046;28;20050;-79
2022/12/12 00:17:21;;;;;;;64.75;26.30;;;;;;;-0.76;73.43;99970.78;10375143;28;20121;-78
2022/12/12 00:22:24;;;;;;;66.72;26.02;;;;;;;-0.86;72.93;99978.19;10346445;28;20480;-80
2022/12/12 00:27:28;;;;;;;67.85;25.60;;;;;;;-0.87;73.17;99975.63;10364488;28;20072;-78
2022/12/12 00:32:32;;;;;;;64.53;26.38;;;;;;;-0.81;72.89;99972.75;10357118;28;20050;-78
2022/12/12 00:37:35;;;;;;;68.22;26.65;;;;;;;-0.85;72.81;99968.50;10334724;28;20125;-78
2022/12/12 00:42:39;;;;;;;71.53;25.25;;;;;;;-0.93;72.96;99981.13;10354794;28;20101;-78
2022/12/12 00:47:41;;;;;;;64.40;26.30;;;;;;;-1.00;72.71;99976.13;10361775;28;20046;-78
2022/12/12 00:52:44;;;;;;;71.18;26.23;;;;;;;-0.95;73.03;99975.94;10363836;28;20112;-80
2022/12/12 00:57:49;;;;;;;74.35;27.70;;;;;;;-0.99;72.78;99977.84;10355444;28;20129;-78
2022/12/12 01:02:52;;;;;;;68.13;25.88;;;;;;;-1.03;72.65;99986.78;10359211;28;20053;-78
2022/12/12 01:07:55;;;;;;;67.50;26.67;;;;;;;-1.03;72.80;99997.34;10363146;28;20084;-79
2022/12/12 01:12:59;;;;;;;67.22;26.52;;;;;;;-1.07;72.85;100003.66;10347402;28;20053;-78
2022/12/12 01:18:01;;;;;;;62.47;27.23;;;;;;;-1.11;72.65;100006.47;10353825;28;20050;-78
2022/12/12 01:23:04;;;;;;;63.13;26.35;;;;;;;-1.11;73.13;100012.59;10350113;28;20054;-80
2022/12/12 01:28:09;;;;;;;68.72;26.27;;;;;;;-1.15;72.71;100010.13;10350533;28;20046;-80
2022/12/12 01:33:12;;;;;;;69.68;27.48;;;;;;;-1.23;72.75;100019.19;10344805;28;20056;-79
2022/12/12 01:38:15;;;;;;;66.13;27.08;;;;;;;-1.24;72.89;100017.47;10347987;28;20078;-79
2022/12/12 01:43:21;;;;;;;72.68;27.00;;;;;;;-1.22;72.59;100020.06;10358705;28;20077;-79
2022/12/12 01:48:27;;;;;;;60.88;25.60;;;;;;;-1.30;72.66;100022.97;10355336;28;20141;-80
2022/12/12 01:53:33;;;;;;;68.78;26.88;;;;;;;-1.33;72.50;100027.50;10364364;28;20040;-78
2022/12/12 01:58:37;;;;;;;66.05;26.60;;;;;;;-1.34;72.72;100026.66;10389813;28;20160;-78
2022/12/12 02:03:42;;;;;;;63.55;25.42;;;;;;;-1.38;72.71;100024.19;10393193;28;20129;-78
2022/12/12 02:08:46;;;;;;;71.82;26.45;;;;;;;-1.45;72.47;100024.41;10391130;28;20045;-78
2022/12/12 02:13:51;;;;;;;66.47;25.75;;;;;;;-1.48;72.73;100028.91;10378389;28;20503;-78
2022/12/12 02:19:03;;;;;;;68.78;27.70;;;;;;;-1.50;72.61;100029.00;10342889;28;20134;-78
2022/12/12 02:24:44;;;;;;;69.35;26.52;;;;;;;-1.52;72.51;100032.59;10374738;28;20076;-79
2022/12/12 02:30:08;;;;;;;65.78;25.25;;;;;;;-1.58;72.63;100022.28;10366048;28;20077;-79
2022/12/12 02:35:20;;;;;;;75.97;26.92;;;;;;;-1.68;72.41;100030.50;10356450;28;20550;-78
2022/12/12 02:40:34;;;;;;;69.35;26.10;;;;;;;-1.69;72.23;100025.31;10350448;28;20050;-78
2022/12/12 02:45:41;;;;;;;69.70;28.13;;;;;;;-1.69;72.26;100027.94;10367232;28;20061;-78
2022/12/12 02:50:47;;;;;;;66.40;25.40;;;;;;;-1.72;72.13;100028.91;10337824;28;20149;-79
2022/12/12 02:56:01;;;;;;;62.70;25.35;;;;;;;-1.69;72.13;100030.59;10356166;28;20473;-78
2022/12/12 03:01:19;;;;;;;71.00;25.67;;;;;;;-1.77;71.98;100038.75;10365721;28;20074;-78
2022/12/12 03:12:07;;;;;;;65.30;24.88;;;;;;;-1.69;71.83;100049.88;10336172;28;20114;-79
2022/12/12 03:17:15;;;;;;;69.95;26.23;;;;;;;-1.68;71.41;100037.56;10369777;28;20065;-79
2022/12/12 03:22:27;;;;;;;64.60;23.58;;;;;;;-1.66;71.16;100033.09;10369342;28;20125;-78
2022/12/12 03:27:34;;;;;;;65.15;23.88;;;;;;;-1.67;71.26;100032.25;10347293;28;20043;-79
2022/12/12 03:32:42;;;;;;;62.78;25.27;;;;;;;-1.65;71.45;100029.53;10362553;28;20046;-78
2022/12/12 03:37:51;;;;;;;59.17;23.20;;;;;;;-1.68;70.86;100033.16;10366465;28;20495;-79
2022/12/12 03:43:00;;;;;;;61.17;23.67;;;;;;;-1.64;70.71;100029.50;10365343;28;20097;-79
2022/12/12 03:48:09;;;;;;;61.78;24.02;;;;;;;-1.63;70.83;100028.56;10354714;28;20101;-79
2022/12/12 03:53:19;;;;;;;56.72;23.38;;;;;;;-1.63;70.96;100041.75;10378881;28;20057;-79
2022/12/12 03:58:28;;;;;;;56.78;22.42;;;;;;;-1.62;71.05;100040.84;10461226;23;20037;-79
2022/12/12 04:03:39;;;;;;;55.20;23.25;;;;;;;-1.60;70.95;100038.13;10471958;28;20079;-79
2022/12/12 04:12:57;;;;;;;57.90;23.88;;;;;;;-1.67;70.57;100032.25;10498432;28;20052;-79
2022/12/12 04:14:21;;;;;;;65.18;24.83;;;;;;;-1.64;70.85;100039.19;10510189;28;20045;-79
2022/12/12 04:25:02;;;;;;;62.28;23.38;;;;;;;-1.86;70.14;100045.22;10490249;28;20105;-78
2022/12/12 04:30:07;;;;;;;55.80;22.98;;;;;;;-1.93;69.87;100045.47;10515604;28;20104;-79
2022/12/12 04:35:13;;;;;;;65.88;23.45;;;;;;;-1.94;70.39;100049.03;10499846;28;20049;-77
2022/12/12 04:40:23;;;;;;;59.47;23.08;;;;;;;-1.95;70.28;100055.19;10505703;28;20524;-78
2022/12/12 04:45:30;;;;;;;56.47;22.42;;;;;;;-1.98;70.30;100064.03;10511025;28;20504;-80
2022/12/12 04:50:35;;;;;;;57.92;22.85;;;;;;;-1.95;70.13;100069.19;10479108;28;20045;-79
2022/12/12 04:55:44;;;;;;;56.67;23.90;;;;;;;-1.99;70.26;100064.97;10483219;28;20049;-78
2022/12/12 05:00:52;;;;;;;56.55;24.05;;;;;;;-2.10;70.28;100061.84;10444969;28;20053;-76
2022/12/12 05:05:59;;;;;;;61.85;24.42;;;;;;;-2.31;70.16;100074.78;10468732;28;20048;-79
2022/12/12 05:11:05;;;;;;;65.60;24.27;;;;;;;-2.36;70.44;100076.75;10458153;28;20045;-78
2022/12/12 05:16:16;;;;;;;61.90;24.83;;;;;;;-2.38;70.29;100075.94;10463171;28;20072;-78
2022/12/12 05:21:19;;;;;;;63.92;23.63;;;;;;;-2.49;70.63;100080.69;10443111;28;20037;-77
2022/12/12 05:26:26;;;;;;;59.17;22.70;;;;;;;-2.43;70.63;100080.47;10464860;28;20025;-75
2022/12/12 05:31:28;;;;;;;58.35;23.85;;;;;;;-2.46;70.26;100077.09;10477216;28;20029;-77
2022/12/12 05:36:31;;;;;;;58.38;24.30;;;;;;;-2.49;70.48;100079.81;10477369;28;20049;-79
2022/12/12 05:41:35;;;;;;;56.42;21.25;;;;;;;-2.45;70.33;100077.03;10446311;28;20050;-78
2022/12/12 05:46:38;;;;;;;85.15;32.45;;;;;;;-2.48;70.09;100087.66;10462622;28;20041;-78
2022/12/12 05:51:41;;;;;;;64.90;25.75;;;;;;;-2.45;70.54;100092.81;10461727;28;20052;-78
2022/12/12 05:56:45;;;;;;;63.58;24.67;;;;;;;-2.43;70.50;100085.72;10470591;28;20045;-77
2022/12/12 06:01:48;;;;;;;58.03;21.65;;;;;;;-2.40;70.04;100087.41;10466155;28;20041;-77
2022/12/12 06:06:51;;;;;;;57.03;22.80;;;;;;;-2.39;70.42;100086.47;10465896;28;20080;-77
2022/12/12 06:11:55;;;;;;;55.45;23.65;;;;;;;-2.40;69.86;100090.03;10465027;28;20045;-76
2022/12/12 06:16:58;;;;;;;85.68;31.25;;;;;;;-2.47;69.85;100088.50;10473582;28;20104;-79
2022/12/12 06:22:00;;;;;;;70.28;26.90;;;;;;;-2.59;69.98;100093.25;10476302;28;20068;-75
2022/12/12 06:27:07;;;;;;;62.03;22.58;;;;;;;-2.62;69.85;100097.75;10477151;28;20037;-79
2022/12/12 06:32:10;;;;;;;62.25;23.90;;;;;;;-2.67;70.07;100083.88;10450671;28;20056;-79
2022/12/12 06:37:13;;;;;;;54.15;21.65;;;;;;;-3.02;70.24;100093.69;10441953;28;20041;-78
2022/12/12 06:42:20;;;;;;;56.78;22.70;;;;;;;-2.93;70.66;100103.94;10465254;28;20097;-77
2022/12/12 06:47:23;;;;;;;63.25;21.88;;;;;;;-2.82;70.40;100101.00;10471674;28;20069;-77
2022/12/12 06:52:26;;;;;;;52.80;21.08;;;;;;;-2.84;70.19;100108.06;10455881;28;20064;-78
2022/12/12 06:57:30;;;;;;;55.67;21.23;;;;;;;-2.97;70.19;100112.81;10453060;28;20068;-78
2022/12/12 07:02:33;;;;;;;55.13;22.30;;;;;;;-3.06;70.49;100113.94;10457788;28;20135;-79
2022/12/12 07:07:35;;;;;;;60.70;23.77;;;;;;;-3.16;70.59;100120.38;10472449;28;20048;-77
2022/12/12 07:12:40;;;;;;;77.18;31.48;;;;;;;-3.11;70.63;100126.34;10448109;28;20053;-78
2022/12/12 07:17:47;;;;;;;67.97;27.60;;;;;;;-3.10;70.45;100128.09;10463630;28;20064;-78
2022/12/12 07:22:49;;;;;;;54.28;22.60;;;;;;;-2.99;70.27;100126.03;10465513;28;20044;-78
2022/12/12 07:27:54;;;;;;;65.55;24.80;;;;;;;-3.09;70.23;100119.31;10446739;28;20048;-77
2022/12/12 07:32:56;;;;;;;52.85;21.83;;;;;;;-3.10;70.30;100129.84;10447578;28;20069;-78
2022/12/12 07:37:59;;;;;;;24.27;6.30;;;;;;;-3.12;71.16;100131.69;10450060;28;20045;-79
2022/12/12 07:43:04;;;;;;;125.53;37.03;;;;;;;-2.76;71.85;100129.72;10443221;28;20049;-79
2022/12/12 07:48:07;;;;;;;50.47;23.05;;;;;;;-2.10;70.94;100138.19;10467656;28;20053;-77
2022/12/12 07:53:09;;;;;;;34.28;18.90;;;;;;;-1.89;68.91;100136.63;10424161;28;20386;-80
2022/12/12 07:58:13;;;;;;;39.40;18.17;;;;;;;-1.48;68.33;100143.09;10461429;28;20053;-78
2022/12/12 08:03:16;;;;;;;45.05;21.02;;;;;;;-1.42;65.37;100150.78;10447228;28;20056;-79
2022/12/12 08:08:19;;;;;;;43.75;19.40;;;;;;;-1.60;64.97;100148.78;10450842;28;20053;-78
2022/12/12 08:13:24;;;;;;;56.33;23.83;;;;;;;-1.62;65.03;100148.84;10447402;28;20128;-78
2022/12/12 08:18:26;;;;;;;53.38;22.25;;;;;;;-1.53;65.46;100147.66;10443014;28;20087;-79
2022/12/12 08:23:29;;;;;;;48.55;22.05;;;;;;;-1.55;64.64;100153.91;10430544;28;20053;-77
2022/12/12 08:28:33;;;;;;;53.97;21.98;;;;;;;-1.67;64.68;100147.28;10455758;28;20025;-76
2022/12/12 08:33:36;;;;;;;61.30;25.05;;;;;;;-1.88;64.87;100162.88;10474417;28;20056;-78
2022/12/12 08:38:39;;;;;;;52.08;18.17;;;;;;;-2.43;65.77;100167.28;10469263;28;20315;-79
2022/12/12 08:43:44;;;;;;;52.40;21.90;;;;;;;-2.51;67.27;100164.03;10453248;28;20052;-77
2022/12/12 08:48:48;;;;;;;49.53;21.90;;;;;;;-2.09;67.05;100172.31;10455713;28;20040;-78
2022/12/12 08:53:52;;;;;;;58.22;24.15;;;;;;;-1.54;65.38;100163.50;10467163;28;20060;-79
2022/12/12 08:58:57;;;;;;;66.28;26.77;;;;;;;-1.09;63.90;100171.56;10469815;28;20041;-79
2022/12/12 09:04:00;;;;;;;64.25;26.38;;;;;;;-1.22;63.20;100172.91;10465064;28;20522;-80
2022/12/12 09:09:03;;;;;;;54.35;23.30;;;;;;;-1.27;63.76;100170.44;10474527;28;20044;-78
2022/12/12 09:14:07;;;;;;;61.08;24.63;;;;;;;-1.40;63.97;100182.31;10454674;28;20053;-78
2022/12/12 09:19:10;;;;;;;61.28;25.08;;;;;;;-1.33;64.67;100175.09;10470822;28;20115;-76
2022/12/12 09:24:12;;;;;;;51.65;22.58;;;;;;;-0.89;64.72;100181.38;10467036;28;20064;-78
2022/12/12 09:29:17;;;;;;;50.97;22.55;;;;;;;-0.68;63.79;100178.88;10475070;28;20051;-76
2022/12/12 09:34:20;;;;;;;59.15;24.58;;;;;;;-0.81;63.28;100176.69;10462963;28;20053;-78
2022/12/12 09:39:22;;;;;;;58.55;24.00;;;;;;;-0.85;63.37;100184.75;10461228;28;20060;-78
2022/12/12 09:44:27;;;;;;;56.05;23.40;;;;;;;-0.92;63.02;100186.78;10480807;28;20031;-77
2022/12/12 09:49:39;;;;;;;52.72;22.83;;;;;;;-0.78;63.82;100186.25;10470804;28;20049;-77
2022/12/12 09:54:46;;;;;;;51.22;20.73;;;;;;;-0.74;63.87;100188.75;10468833;28;20101;-79
2022/12/12 09:59:56;;;;;;;52.65;22.45;;;;;;;-0.70;63.27;100185.97;10438363;23;20066;-78
2022/12/12 10:05:02;;;;;;;48.55;21.88;;;;;;;-0.72;63.58;100188.66;10446850;28;20576;-78
2022/12/12 10:10:19;;;;;;;55.65;22.10;;;;;;;-0.51;63.21;100184.38;10423290;28;20080;-78
2022/12/12 10:15:31;;;;;;;47.10;21.40;;;;;;;-0.40;62.63;100182.16;10426925;28;20148;-78
2022/12/12 10:20:40;;;;;;;53.72;21.10;;;;;;;-0.39;62.80;100175.09;10426520;28;20045;-78
2022/12/12 10:25:49;;;;;;;44.28;20.15;;;;;;;-0.18;62.54;100176.03;10426247;28;20061;-77
2022/12/12 10:31:05;;;;;;;81.80;34.03;;;;;;;-0.06;62.44;100167.63;10421792;28;20073;-78
2022/12/12 10:36:17;;;;;;;62.63;27.45;;;;;;;-0.07;61.79;100177.31;10425216;28;20068;-78
2022/12/12 10:41:31;;;;;;;67.32;30.45;;;;;;;-0.11;61.81;100181.03;10426133;28;20398;-78
2022/12/12 10:46:42;;;;;;;50.42;20.73;;;;;;;-0.07;61.93;100173.84;10424111;28;20045;-78
2022/12/12 10:51:48;;;;;;;42.33;19.83;;;;;;;-0.10;60.97;100174.81;10425626;28;20593;-78
2022/12/12 10:57:10;;;;;;;58.13;25.25;;;;;;;-0.12;61.54;100166.09;10407836;28;20622;-77
2022/12/12 11:02:37;;;;;;;49.00;21.38;;;;;;;0.01;61.66;100158.53;10413288;28;20540;-77
2022/12/12 11:07:43;;;;;;;47.65;21.65;;;;;;;0.32;61.48;100159.91;10414947;28;20064;-78
2022/12/12 11:12:46;;;;;;;49.42;22.58;;;;;;;0.73;61.35;100147.53;10401883;28;20088;-78
2022/12/12 11:17:50;;;;;;;48.38;22.05;;;;;;;0.89;60.52;100157.44;10418684;28;20512;-78
2022/12/12 11:22:55;;;;;;;49.00;21.80;;;;;;;0.97;60.68;100160.63;10419126;28;20061;-79
2022/12/12 11:28:00;;;;;;;58.30;23.17;;;;;;;0.79;59.89;100157.00;10417548;28;20038;-77
2022/12/12 11:33:20;;;;;;;54.50;22.50;;;;;;;0.80;60.24;100156.94;10421504;28;20107;-78
2022/12/12 11:38:28;;;;;;;51.13;24.35;;;;;;;0.89;60.31;100157.44;10421455;28;20038;-78
2022/12/12 11:43:32;;;;;;;48.00;23.08;;;;;;;0.85;60.77;100146.16;10422268;28;20029;-79
2022/12/12 11:48:40;;;;;;;52.22;22.60;;;;;;;0.90;60.16;100138.00;10422469;28;20048;-79
2022/12/12 11:53:45;;;;;;;53.30;22.90;;;;;;;0.75;60.64;100148.34;10403985;28;20049;-78
2022/12/12 11:58:56;;;;;;;49.58;23.00;;;;;;;0.65;61.21;100151.44;10404147;28;20060;-78
2022/12/12 12:04:18;;;;;;;50.08;21.48;;;;;;;0.52;61.75;100145.81;10416519;28;20504;-78
2022/12/12 12:09:32;;;;;;;49.63;22.35;;;;;;;0.42;61.27;100142.75;10400564;28;20049;-78
2022/12/12 12:14:53;;;;;;;47.25;20.35;;;;;;;0.29;61.56;100144.19;10421105;28;20029;-78
2022/12/12 12:20:07;;;;;;;48.55;21.52;;;;;;;0.23;62.13;100147.09;10415188;28;20413;-78
2022/12/12 12:25:23;;;;;;;51.00;22.60;;;;;;;0.28;62.45;100135.41;10419684;28;20038;-78
2022/12/12 12:30:31;;;;;;;46.92;20.90;;;;;;;0.34;62.87;100139.56;10402141;28;20487;-78
2022/12/12 12:35:45;;;;;;;49.58;21.17;;;;;;;0.38;62.94;100139.38;10417594;28;20508;-78
2022/12/12 12:41:08;;;;;;;46.15;20.92;;;;;;;0.37;62.87;100132.34;10418295;28;20052;-78
2022/12/12 12:46:18;;;;;;;44.92;19.83;;;;;;;0.37;62.94;100128.84;10413915;28;20152;-78
2022/12/12 12:51:27;;;;;;;48.70;21.42;;;;;;;0.43;62.65;100125.94;10411680;28;20453;-78
2022/12/12 12:56:32;;;;;;;52.67;21.67;;;;;;;0.42;63.10;100115.47;10425546;28;20522;-78
2022/12/12 13:01:39;;;;;;;48.65;22.15;;;;;;;0.39;62.94;100119.94;10420800;28;20042;-78
2022/12/12 13:06:50;;;;;;;45.97;20.75;;;;;;;0.41;63.21;100122.50;10401092;28;20120;-78
2022/12/12 13:11:58;;;;;;;45.63;20.13;;;;;;;0.42;63.71;100124.25;10417076;28;20057;-78
2022/12/12 13:17:06;;;;;;;47.40;20.77;;;;;;;0.34;63.50;100135.13;10418538;28;20095;-78
2022/12/12 13:22:15;;;;;;;47.38;22.35;;;;;;;0.16;64.08;100130.63;10413988;28;20095;-77
2022/12/12 13:27:23;;;;;;;51.20;22.70;;;;;;;0.16;64.44;100134.16;10418288;28;20064;-78
2022/12/12 13:33:02;;;;;;;48.50;20.20;;;;;;;0.17;64.31;100135.84;10420945;28;20053;-77
2022/12/12 13:38:17;;;;;;;49.35;20.48;;;;;;;0.17;64.22;100135.84;10416101;28;20038;-78
2022/12/12 13:43:29;;;;;;;49.63;20.70;;;;;;;0.23;64.85;100142.66;10414968;28;20117;-78
2022/12/12 13:48:45;;;;;;;45.20;20.73;;;;;;;0.18;64.22;100134.06;10422010;28;20048;-78
2022/12/12 13:54:10;;;;;;;45.92;19.38;;;;;;;0.25;64.27;100137.28;10422877;28;20052;-78
2022/12/12 13:59:29;;;;;;;51.38;24.52;;;;;;;0.26;63.90;100141.66;10421811;28;20578;-77
2022/12/12 14:04:33;;;;;;;46.78;20.88;;;;;;;0.16;63.75;100134.16;10417297;28;20045;-77
2022/12/12 14:09:40;;;;;;;48.35;21.10;;;;;;;0.11;63.92;100136.13;10419837;28;20087;-76
2022/12/12 14:14:55;;;;;;;46.88;21.83;;;;;;;0.12;64.07;100137.81;10416996;28;20125;-77
2022/12/12 14:20:00;;;;;;;48.15;20.63;;;;;;;0.12;64.33;100140.47;10405666;28;20091;-76
2022/12/12 14:25:19;;;;;;;41.53;19.85;;;;;;;0.08;64.85;100140.66;10407916;28;20136;-78
2022/12/12 14:30:24;;;;;;;50.67;21.63;;;;;;;0.02;64.93;100136.47;10430094;28;20033;-78
2022/12/12 14:35:34;;;;;;;44.58;20.27;;;;;;;0.00;64.82;100140.97;10429818;28;20049;-78
2022/12/12 14:40:43;;;;;;;52.22;22.23;;;;;;;-0.08;64.76;100140.44;10403968;28;20069;-78
2022/12/12 14:45:55;;;;;;;44.58;20.50;;;;;;;-0.19;64.98;100134.69;10430079;28;20068;-78
2022/12/12 14:51:07;;;;;;;51.45;23.88;;;;;;;-0.39;65.54;100144.28;10426247;28;20041;-77
2022/12/12 14:56:14;;;;;;;46.38;20.77;;;;;;;-0.54;65.82;100150.19;10432245;28;20112;-77
2022/12/12 15:01:26;;;;;;;52.50;23.45;;;;;;;-0.64;66.77;100146.16;10422375;28;20176;-77
2022/12/12 15:06:31;;;;;;;;;;;;;;;-0.66;67.11;100145.34;10419663;28;20049;-77
2022/12/12 15:11:35;;;;;;;96.75;36.78;;;;;;;-0.71;67.59;100156.13;10419670;28;19964;-77
2022/12/12 15:16:44;;;;;;;55.40;23.60;;;;;;;-0.62;67.46;100157.53;10419310;28;20507;-77
2022/12/12 15:21:51;;;;;;;66.07;28.05;;;;;;;-0.59;67.13;100155.63;10419733;28;20041;-77
2022/12/12 15:26:57;;;;;;;40.83;18.13;;;;;;;-1.20;69.47;100165.84;10403869;28;20073;-77
2022/12/12 15:32:03;;;;;;;51.47;21.85;;;;;;;-1.08;70.09;100160.09;10420211;28;20064;-77
2022/12/12 15:37:12;;;;;;;42.22;20.58;;;;;;;-0.92;69.45;100159.56;10401111;28;20053;-77
2022/12/12 15:42:16;;;;;;;42.90;19.23;;;;;;;-1.04;70.31;100160.84;10380739;28;20049;-78
2022/12/12 15:47:20;;;;;;;51.42;21.73;;;;;;;-0.86;69.82;100152.25;10374578;28;20073;-78
2022/12/12 15:52:27;;;;;;;54.33;22.25;;;;;;;-0.76;69.62;100148.38;10363786;28;20049;-77
2022/12/12 15:57:43;;;;;;;54.22;23.90;;;;;;;-0.70;69.28;100151.69;10377934;28;20083;-76
2022/12/12 16:02:57;;;;;;;75.47;31.02;;;;;;;-0.74;68.82;100151.81;10356882;28;20160;-77
2022/12/12 16:08:43;;;;;;;53.22;22.33;;;;;;;-0.77;68.54;100166.88;10369599;28;20049;-76
2022/12/12 16:13:47;;;;;;;53.85;21.30;;;;;;;-0.77;69.11;100169.50;10355832;28;20049;-77
2022/12/12 16:18:50;;;;;;;58.00;24.08;;;;;;;-0.80;69.39;100164.34;10376879;28;20042;-77
2022/12/12 16:23:53;;;;;;;60.55;25.65;;;;;;;-0.77;69.28;100164.22;10359720;28;20064;-77
2022/12/12 16:28:57;;;;;;;51.85;24.95;;;;;;;-0.75;69.08;100171.16;10357501;28;20529;-77
2022/12/12 16:34:03;;;;;;;62.45;25.88;;;;;;;-0.72;68.91;100176.31;10373556;28;20059;-77
2022/12/12 16:39:06;;;;;;;46.50;22.17;;;;;;;-0.74;68.76;100179.94;10375968;28;20057;-77
2022/12/12 16:44:10;;;;;;;57.10;23.88;;;;;;;-0.76;68.43;100179.16;10373279;28;20507;-77
2022/12/12 16:49:13;;;;;;;51.17;23.85;;;;;;;-0.70;68.38;100180.72;10378330;28;20049;-78
2022/12/12 16:54:17;;;;;;;53.70;23.77;;;;;;;-0.73;68.10;100169.34;10381086;28;20075;-78
2022/12/12 16:59:21;;;;;;;48.72;23.23;;;;;;;-0.77;68.29;100174.78;10379717;28;21217;-77
2022/12/12 17:04:25;;;;;;;49.80;24.35;;;;;;;-0.80;68.60;100167.84;10385473;28;20045;-77
2022/12/12 17:09:28;;;;;;;48.95;21.77;;;;;;;-0.91;68.82;100166.53;10375911;28;20103;-77
2022/12/12 17:14:33;;;;;;;44.15;20.73;;;;;;;-1.00;69.08;100173.00;10379766;28;20106;-77
2022/12/12 17:19:36;;;;;;;48.72;21.42;;;;;;;-1.04;69.12;100164.34;10380180;28;20056;-76
2022/12/12 17:24:39;;;;;;;52.40;24.17;;;;;;;-1.14;69.66;100178.78;10379376;28;20045;-76
2022/12/12 17:29:43;;;;;;;79.63;33.30;;;;;;;-1.19;69.55;100171.03;10379381;28;20049;-78
2022/12/12 17:34:46;;;;;;;62.13;27.27;;;;;;;-1.32;70.14;100168.88;10373834;28;20049;-77
2022/12/12 17:39:49;;;;;;;65.35;31.00;;;;;;;-1.56;70.65;100175.88;10382647;28;20052;-78
2022/12/12 17:44:53;;;;;;;101.15;40.03;;;;;;;-1.55;70.49;100174.97;10383199;28;20129;-77
2022/12/12 17:49:56;;;;;;;77.53;33.88;;;;;;;-1.67;70.87;100171.84;10377223;28;20054;-76
2022/12/12 17:54:59;;;;;;;112.72;47.92;;;;;;;-1.79;71.39;100180.13;10375949;28;20069;-77
2022/12/12 18:00:24;;;;;;;79.95;34.30;;;;;;;-1.85;71.48;100185.63;10383277;28;20049;-78
2022/12/12 18:05:27;;;;;;;71.28;33.05;;;;;;;-1.91;71.81;100180.56;10385263;28;20060;-77
2022/12/12 18:10:30;;;;;;;69.65;32.92;;;;;;;-1.99;71.63;100179.94;10388872;28;20113;-78
2022/12/12 18:15:34;;;;;;;100.22;43.30;;;;;;;-2.07;71.92;100170.50;10372474;28;20055;-78
2022/12/12 18:20:38;;;;;;;91.25;38.08;;;;;;;-2.11;71.88;100174.16;10364455;28;20141;-78
2022/12/12 18:25:41;;;;;;;113.13;44.20;;;;;;;-2.16;71.89;100173.44;10389470;28;20041;-78
2022/12/12 18:30:48;;;;;;;114.32;46.20;;;;;;;-2.19;71.57;100181.44;10386884;28;20045;-78
2022/12/12 18:35:51;;;;;;;79.88;34.65;;;;;;;-2.19;71.86;100173.56;10391953;28;20061;-78
2022/12/12 18:40:54;;;;;;;71.57;30.83;;;;;;;-2.24;71.52;100178.09;10389438;28;20355;-77
2022/12/12 18:46:03;;;;;;;70.22;29.00;;;;;;;-2.33;71.58;100183.63;10389141;28;20081;-78
2022/12/12 18:51:08;;;;;;;100.60;42.78;;;;;;;-2.38;71.75;100188.19;10368887;28;20357;-78
2022/12/12 18:56:14;;;;;;;76.05;31.98;;;;;;;-2.38;71.39;100188.19;10386012;28;20050;-78
2022/12/12 19:01:21;;;;;;;63.33;27.42;;;;;;;-2.35;71.81;100202.09;10387340;28;20037;-77
2022/12/12 19:06:30;;;;;;;57.92;24.30;;;;;;;-2.25;71.49;100200.03;10384759;28;20172;-77
2022/12/12 19:11:36;;;;;;;55.38;25.85;;;;;;;-2.12;70.86;100196.13;10383961;28;20050;-77
2022/12/12 19:16:40;;;;;;;55.22;25.50;;;;;;;-2.17;70.47;100191.91;10386085;28;20045;-77
2022/12/12 19:21:45;;;;;;;62.22;29.73;;;;;;;-2.32;70.36;100193.25;10367231;28;20140;-77
2022/12/12 19:26:48;;;;;;;67.20;29.27;;;;;;;-2.43;70.46;100183.06;10364655;28;20041;-76
2022/12/12 19:31:52;;;;;;;77.97;33.17;;;;;;;-2.59;70.79;100187.91;10388524;28;20048;-78
2022/12/12 19:37:01;;;;;;;117.32;41.13;;;;;;;-2.70;71.05;100183.91;10400750;28;20080;-76
2022/12/12 19:42:04;;;;;;;72.78;29.65;;;;;;;-2.72;71.02;100178.66;10370624;28;20053;-77
2022/12/12 19:47:08;;;;;;;78.47;32.20;;;;;;;-2.78;70.98;100192.00;10370816;28;20643;-77
2022/12/12 19:52:11;;;;;;;54.65;22.08;;;;;;;-2.85;71.01;100186.06;10369293;28;20045;-76
2022/12/12 19:57:16;;;;;;;64.85;30.10;;;;;;;-2.92;71.14;100187.13;10386841;28;20052;-77
2022/12/12 20:02:20;;;;;;;65.00;29.13;;;;;;;-2.87;71.55;100194.91;10384635;28;20045;-77
2022/12/12 20:07:23;;;;;;;72.38;29.50;;;;;;;-2.88;71.23;100175.66;10368526;28;20080;-77
2022/12/12 20:12:26;;;;;;;71.60;31.00;;;;;;;-2.92;71.29;100178.41;10386502;28;20049;-78
2022/12/12 20:17:30;;;;;;;64.50;29.17;;;;;;;-3.11;71.31;100170.16;10384003;28;20060;-78
2022/12/12 20:22:33;;;;;;;70.63;29.85;;;;;;;-3.18;71.45;100185.25;10386907;28;20042;-78
2022/12/12 20:27:35;;;;;;;67.35;31.02;;;;;;;-3.22;71.48;100180.97;10387829;28;20168;-78
2022/12/12 20:32:40;;;;;;;67.28;31.50;;;;;;;-3.28;71.48;100174.13;10386819;28;20047;-78
2022/12/12 20:37:42;;;;;;;69.32;31.13;;;;;;;-3.30;71.52;100182.94;10385611;28;20069;-78
2022/12/12 20:42:45;;;;;;;56.05;25.17;;;;;;;-3.27;71.40;100196.00;10385704;28;20073;-78
2022/12/12 20:47:59;;;;;;;60.53;26.52;;;;;;;-3.33;71.32;100196.19;10389831;28;20119;-77
2022/12/12 20:53:09;;;;;;;58.73;25.03;;;;;;;-3.27;71.29;100198.63;10377386;28;20057;-77
2022/12/12 20:58:12;;;;;;;55.08;25.98;;;;;;;-3.39;71.04;100197.19;10382247;28;20284;-78
2022/12/12 21:03:16;;;;;;;62.33;26.08;;;;;;;-3.43;71.15;100190.28;10369987;28;20123;-77
2022/12/12 21:08:20;;;;;;;64.35;26.45;;;;;;;-3.44;71.09;100193.81;10393974;28;20080;-77
2022/12/12 21:13:24;;;;;;;60.72;27.75;;;;;;;-3.52;71.11;100191.41;10380370;28;20086;-77
2022/12/12 21:18:30;;;;;;;55.67;23.80;;;;;;;-3.52;71.00;100187.91;10388935;28;20445;-77
2022/12/12 21:23:33;;;;;;;52.60;22.33;;;;;;;-3.61;70.96;100188.16;10388671;28;20060;-77
2022/12/12 21:28:37;;;;;;;56.72;23.30;;;;;;;-3.68;71.20;100185.69;10392728;28;20063;-77
2022/12/12 21:33:41;;;;;;;55.67;21.88;;;;;;;-3.76;70.87;100177.13;10367703;28;20142;-78
2022/12/12 21:38:44;;;;;;;57.63;23.88;;;;;;;-3.80;71.05;100175.50;10410637;28;20486;-79
2022/12/12 21:43:47;;;;;;;57.17;24.75;;;;;;;-3.80;71.57;100180.75;10417180;28;20060;-79
2022/12/12 21:54:11;;;;;;;61.83;24.88;;;;;;;-3.75;71.27;100175.41;10361234;28;20057;-76
2022/12/12 21:59:15;;;;;;;60.63;24.95;;;;;;;-3.78;71.35;100181.59;10380001;28;20057;-78
2022/12/12 22:04:20;;;;;;;64.65;24.08;;;;;;;-3.73;71.28;100176.19;10398844;28;20088;-77
2022/12/12 22:09:23;;;;;;;55.80;23.20;;;;;;;-3.71;71.04;100179.66;10422562;28;20076;-77
2022/12/12 22:14:26;;;;;;;59.80;25.73;;;;;;;-3.65;70.96;100177.75;10390231;28;20222;-77
2022/12/12 22:19:30;;;;;;;54.10;22.52;;;;;;;-3.59;70.55;100184.59;10396728;28;20042;-77
2022/12/12 22:24:33;;;;;;;48.10;21.10;;;;;;;-3.89;70.86;100181.84;10401510;28;20041;-78
2022/12/12 22:29:36;;;;;;;53.42;22.45;;;;;;;-3.94;71.33;100193.34;10395873;28;20121;-77
2022/12/12 22:34:40;;;;;;;53.92;22.30;;;;;;;-3.98;71.39;100197.78;10417799;28;20049;-77
2022/12/12 22:39:43;;;;;;;59.50;25.63;;;;;;;-4.00;71.43;100193.47;10409169;28;20092;-77
2022/12/12 22:44:46;;;;;;;53.50;23.88;;;;;;;-3.98;71.19;100194.31;10398453;28;20077;-77
2022/12/12 22:49:51;;;;;;;57.65;24.90;;;;;;;-3.98;71.50;100191.69;10420124;28;20064;-78
2022/12/12 22:54:54;;;;;;;57.97;23.08;;;;;;;-3.99;71.36;100188.22;10399130;28;20486;-77
2022/12/12 22:59:57;;;;;;;52.90;22.13;;;;;;;-3.95;71.39;100182.00;10400308;28;20122;-77
2022/12/12 23:05:01;;;;;;;55.00;22.95;;;;;;;-3.92;70.96;100202.03;10411083;28;20050;-77
2022/12/12 23:10:04;;;;;;;52.38;22.50;;;;;;;-3.93;70.81;100197.69;10429839;28;20037;-77
2022/12/12 23:15:08;;;;;;;56.38;22.58;;;;;;;-3.97;70.42;100194.28;10400278;28;20069;-77
2022/12/12 23:20:12;;;;;;;53.35;21.13;;;;;;;-4.04;70.58;100200.56;10427360;28;20030;-77